sensor_id;sensor_type;location;lat;lon;timestamp;P1;durP1;ratioP1;P2;durP2;ratioP2
38117;SDS011;23928;47.562;7.508;2022-08-01T00:00:09;1.47;;;1.37;;
38117;SDS011;23928;47.562;7.508;2022-08-01T00:02:36;1.50;;;1.40;;
38117;SDS011;23928;47.562;7.508;2022-08-01T00:05:06;1.63;;;1.43;;
38117;SDS011;23928;47.562;7.508;2022-08-01T00:07:33;3.03;;;1.50;;
38117;SDS011;23928;47.562;7.508;2022-08-01T00:09:59;1.50;;;1.40;;
38117;SDS011;23928;47.562;7.508;2022-08-01T00:12:25;1.30;;;1.20;;
38117;SDS011;23928;47.562;7.508;2022-08-01T00:14:50;2.53;;;1.60;;
38117;SDS011;23928;47.562;7.508;2022-08-01T00:17:16;1.87;;;1.30;;
38117;SDS011;23928;47.562;7.508;2022-08-01T00:19:41;1.57;;;1.47;;
38117;SDS011;23928;47.562;7.508;2022-08-01T00:22:07;1.50;;;1.40;;
38117;SDS011;23928;47.562;7.508;2022-08-01T00:24:33;1.80;;;1.20;;
38117;SDS011;23928;47.562;7.508;2022-08-01T00:26:58;2.30;;;1.57;;
38117;SDS011;23928;47.562;7.508;2022-08-01T00:29:24;2.30;;;1.80;;
38117;SDS011;23928;47.562;7.508;2022-08-01T00:31:50;1.50;;;1.20;;
38117;SDS011;23928;47.562;7.508;2022-08-01T00:34:15;1.90;;;1.70;;
38117;SDS011;23928;47.562;7.508;2022-08-01T00:36:41;1.70;;;1.60;;
38117;SDS011;23928;47.562;7.508;2022-08-01T00:39:07;1.77;;;1.67;;
38117;SDS011;23928;47.562;7.508;2022-08-01T00:41:32;1.70;;;1.60;;
38117;SDS011;23928;47.562;7.508;2022-08-01T00:43:58;1.40;;;1.30;;
38117;SDS011;23928;47.562;7.508;2022-08-01T00:46:26;2.40;;;1.50;;
38117;SDS011;23928;47.562;7.508;2022-08-01T00:48:52;2.00;;;1.60;;
38117;SDS011;23928;47.562;7.508;2022-08-01T00:51:18;2.57;;;1.40;;
38117;SDS011;23928;47.562;7.508;2022-08-01T00:53:44;1.87;;;1.70;;
38117;SDS011;23928;47.562;7.508;2022-08-01T00:56:09;1.73;;;1.57;;
38117;SDS011;23928;47.562;7.508;2022-08-01T00:58:36;2.40;;;1.60;;
38117;SDS011;23928;47.562;7.508;2022-08-01T01:01:02;2.30;;;1.53;;
38117;SDS011;23928;47.562;7.508;2022-08-01T01:03:27;2.77;;;1.40;;
38117;SDS011;23928;47.562;7.508;2022-08-01T01:08:43;2.67;;;1.73;;
38117;SDS011;23928;47.562;7.508;2022-08-01T01:11:26;1.77;;;1.60;;
38117;SDS011;23928;47.562;7.508;2022-08-01T01:14:04;1.80;;;1.70;;
38117;SDS011;23928;47.562;7.508;2022-08-01T01:16:33;1.83;;;1.73;;
38117;SDS011;23928;47.562;7.508;2022-08-01T01:19:01;1.60;;;1.50;;
38117;SDS011;23928;47.562;7.508;2022-08-01T01:21:35;1.83;;;1.70;;
38117;SDS011;23928;47.562;7.508;2022-08-01T01:32:06;1.67;;;1.57;;
38117;SDS011;23928;47.562;7.508;2022-08-01T01:34:38;1.70;;;1.60;;
38117;SDS011;23928;47.562;7.508;2022-08-01T01:37:09;1.80;;;1.50;;
38117;SDS011;23928;47.562;7.508;2022-08-01T01:39:40;1.87;;;1.73;;
38117;SDS011;23928;47.562;7.508;2022-08-01T01:42:07;2.50;;;1.60;;
38117;SDS011;23928;47.562;7.508;2022-08-01T01:44:33;1.90;;;1.53;;
38117;SDS011;23928;47.562;7.508;2022-08-01T01:47:00;1.70;;;1.60;;
38117;SDS011;23928;47.562;7.508;2022-08-01T01:49:27;1.80;;;1.70;;
38117;SDS011;23928;47.562;7.508;2022-08-01T01:51:54;2.30;;;1.70;;
38117;SDS011;23928;47.562;7.508;2022-08-01T01:54:22;1.90;;;1.80;;
38117;SDS011;23928;47.562;7.508;2022-08-01T01:56:50;4.13;;;1.93;;
38117;SDS011;23928;47.562;7.508;2022-08-01T01:59:20;1.40;;;1.30;;
38117;SDS011;23928;47.562;7.508;2022-08-01T02:01:49;2.80;;;1.60;;
38117;SDS011;23928;47.562;7.508;2022-08-01T02:04:16;1.80;;;1.70;;
38117;SDS011;23928;47.562;7.508;2022-08-01T02:06:45;2.27;;;1.63;;
38117;SDS011;23928;47.562;7.508;2022-08-01T02:09:16;2.43;;;1.50;;
38117;SDS011;23928;47.562;7.508;2022-08-01T02:11:45;2.70;;;1.80;;
38117;SDS011;23928;47.562;7.508;2022-08-01T02:14:12;2.07;;;1.90;;
38117;SDS011;23928;47.562;7.508;2022-08-01T02:16:39;2.03;;;1.70;;
38117;SDS011;23928;47.562;7.508;2022-08-01T02:19:07;1.47;;;1.40;;
38117;SDS011;23928;47.562;7.508;2022-08-01T02:21:44;1.97;;;1.80;;
38117;SDS011;23928;47.562;7.508;2022-08-01T02:27:11;1.80;;;1.70;;
38117;SDS011;23928;47.562;7.508;2022-08-01T02:29:44;1.80;;;1.70;;
38117;SDS011;23928;47.562;7.508;2022-08-01T02:32:23;1.70;;;1.60;;
38117;SDS011;23928;47.562;7.508;2022-08-01T02:34:51;2.13;;;1.70;;
38117;SDS011;23928;47.562;7.508;2022-08-01T02:37:20;2.00;;;1.90;;
38117;SDS011;23928;47.562;7.508;2022-08-01T02:39:50;1.73;;;1.63;;
38117;SDS011;23928;47.562;7.508;2022-08-01T02:42:18;1.80;;;1.70;;
38117;SDS011;23928;47.562;7.508;2022-08-01T02:44:45;2.30;;;1.60;;
38117;SDS011;23928;47.562;7.508;2022-08-01T02:47:13;1.87;;;1.70;;
38117;SDS011;23928;47.562;7.508;2022-08-01T02:49:42;2.10;;;1.90;;
38117;SDS011;23928;47.562;7.508;2022-08-01T02:52:12;1.53;;;1.43;;
38117;SDS011;23928;47.562;7.508;2022-08-01T02:54:40;2.10;;;1.80;;
38117;SDS011;23928;47.562;7.508;2022-08-01T02:57:08;2.80;;;1.60;;
38117;SDS011;23928;47.562;7.508;2022-08-01T02:59:36;1.90;;;1.80;;
38117;SDS011;23928;47.562;7.508;2022-08-01T03:02:03;2.50;;;2.13;;
38117;SDS011;23928;47.562;7.508;2022-08-01T03:04:30;2.07;;;1.93;;
38117;SDS011;23928;47.562;7.508;2022-08-01T03:06:58;2.10;;;1.90;;
38117;SDS011;23928;47.562;7.508;2022-08-01T03:09:28;1.90;;;1.80;;
38117;SDS011;23928;47.562;7.508;2022-08-01T03:11:55;2.17;;;1.97;;
38117;SDS011;23928;47.562;7.508;2022-08-01T03:14:24;2.63;;;2.03;;
38117;SDS011;23928;47.562;7.508;2022-08-01T03:16:51;1.70;;;1.60;;
38117;SDS011;23928;47.562;7.508;2022-08-01T03:19:18;2.27;;;1.90;;
38117;SDS011;23928;47.562;7.508;2022-08-01T03:21:45;2.60;;;2.00;;
38117;SDS011;23928;47.562;7.508;2022-08-01T03:24:13;2.70;;;1.80;;
38117;SDS011;23928;47.562;7.508;2022-08-01T03:26:40;2.57;;;1.60;;
38117;SDS011;23928;47.562;7.508;2022-08-01T03:29:12;3.07;;;1.90;;
38117;SDS011;23928;47.562;7.508;2022-08-01T03:31:43;2.00;;;1.80;;
38117;SDS011;23928;47.562;7.508;2022-08-01T03:34:10;2.50;;;1.50;;
38117;SDS011;23928;47.562;7.508;2022-08-01T03:36:46;2.77;;;1.70;;
38117;SDS011;23928;47.562;7.508;2022-08-01T03:39:28;1.93;;;1.83;;
38117;SDS011;23928;47.562;7.508;2022-08-01T04:37:22;2.57;;;2.03;;
38117;SDS011;23928;47.562;7.508;2022-08-01T04:39:50;2.67;;;2.10;;
38117;SDS011;23928;47.562;7.508;2022-08-01T04:42:19;2.03;;;1.90;;
38117;SDS011;23928;47.562;7.508;2022-08-01T04:44:44;1.93;;;1.83;;
38117;SDS011;23928;47.562;7.508;2022-08-01T04:47:10;2.60;;;2.10;;
38117;SDS011;23928;47.562;7.508;2022-08-01T04:49:37;2.00;;;1.70;;
38117;SDS011;23928;47.562;7.508;2022-08-01T04:52:04;2.50;;;2.30;;
38117;SDS011;23928;47.562;7.508;2022-08-01T04:54:32;2.20;;;2.00;;
38117;SDS011;23928;47.562;7.508;2022-08-01T04:57:02;2.20;;;1.70;;
38117;SDS011;23928;47.562;7.508;2022-08-01T04:59:29;2.90;;;1.80;;
38117;SDS011;23928;47.562;7.508;2022-08-01T05:02:05;1.93;;;1.83;;
38117;SDS011;23928;47.562;7.508;2022-08-01T05:04:32;4.03;;;1.90;;
38117;SDS011;23928;47.562;7.508;2022-08-01T05:06:58;2.30;;;2.10;;
38117;SDS011;23928;47.562;7.508;2022-08-01T05:09:24;2.40;;;2.20;;
38117;SDS011;23928;47.562;7.508;2022-08-01T05:11:50;2.77;;;2.13;;
38117;SDS011;23928;47.562;7.508;2022-08-01T05:14:16;2.43;;;1.97;;
38117;SDS011;23928;47.562;7.508;2022-08-01T05:16:41;2.60;;;2.00;;
38117;SDS011;23928;47.562;7.508;2022-08-01T05:19:07;2.40;;;2.20;;
38117;SDS011;23928;47.562;7.508;2022-08-01T05:21:33;3.57;;;1.90;;
38117;SDS011;23928;47.562;7.508;2022-08-01T05:24:00;2.20;;;2.00;;
38117;SDS011;23928;47.562;7.508;2022-08-01T05:26:25;2.23;;;1.70;;
38117;SDS011;23928;47.562;7.508;2022-08-01T05:28:51;1.97;;;1.87;;
38117;SDS011;23928;47.562;7.508;2022-08-01T05:31:16;3.23;;;2.27;;
38117;SDS011;23928;47.562;7.508;2022-08-01T05:33:42;3.70;;;2.17;;
38117;SDS011;23928;47.562;7.508;2022-08-01T05:36:08;1.90;;;1.80;;
38117;SDS011;23928;47.562;7.508;2022-08-01T05:38:33;2.20;;;1.80;;
38117;SDS011;23928;47.562;7.508;2022-08-01T05:40:59;2.07;;;1.97;;
38117;SDS011;23928;47.562;7.508;2022-08-01T05:43:25;1.90;;;1.80;;
38117;SDS011;23928;47.562;7.508;2022-08-01T05:45:50;1.97;;;1.87;;
38117;SDS011;23928;47.562;7.508;2022-08-01T05:48:16;2.63;;;2.10;;
38117;SDS011;23928;47.562;7.508;2022-08-01T05:50:42;3.10;;;2.53;;
38117;SDS011;23928;47.562;7.508;2022-08-01T05:53:07;2.70;;;2.20;;
38117;SDS011;23928;47.562;7.508;2022-08-01T05:55:34;2.47;;;2.20;;
38117;SDS011;23928;47.562;7.508;2022-08-01T05:58:00;2.60;;;2.10;;
38117;SDS011;23928;47.562;7.508;2022-08-01T06:00:26;2.23;;;2.00;;
38117;SDS011;23928;47.562;7.508;2022-08-01T06:02:51;4.20;;;2.30;;
38117;SDS011;23928;47.562;7.508;2022-08-01T06:05:17;3.63;;;2.10;;
38117;SDS011;23928;47.562;7.508;2022-08-01T06:07:43;2.50;;;1.80;;
38117;SDS011;23928;47.562;7.508;2022-08-01T06:10:08;2.10;;;2.00;;
38117;SDS011;23928;47.562;7.508;2022-08-01T06:12:34;2.10;;;1.90;;
38117;SDS011;23928;47.562;7.508;2022-08-01T06:15:01;4.20;;;2.20;;
38117;SDS011;23928;47.562;7.508;2022-08-01T06:17:27;3.50;;;1.90;;
38117;SDS011;23928;47.562;7.508;2022-08-01T06:19:53;2.20;;;2.00;;
38117;SDS011;23928;47.562;7.508;2022-08-01T06:22:19;3.03;;;2.10;;
38117;SDS011;23928;47.562;7.508;2022-08-01T06:24:44;3.50;;;2.17;;
38117;SDS011;23928;47.562;7.508;2022-08-01T06:27:10;1.90;;;1.80;;
38117;SDS011;23928;47.562;7.508;2022-08-01T06:29:35;2.17;;;1.90;;
38117;SDS011;23928;47.562;7.508;2022-08-01T06:32:01;2.73;;;2.10;;
38117;SDS011;23928;47.562;7.508;2022-08-01T06:34:27;3.07;;;2.00;;
38117;SDS011;23928;47.562;7.508;2022-08-01T06:36:52;2.73;;;2.17;;
38117;SDS011;23928;47.562;7.508;2022-08-01T06:39:18;3.70;;;2.00;;
38117;SDS011;23928;47.562;7.508;2022-08-01T06:41:43;3.13;;;2.30;;
38117;SDS011;23928;47.562;7.508;2022-08-01T06:44:11;3.00;;;2.47;;
38117;SDS011;23928;47.562;7.508;2022-08-01T06:46:39;2.57;;;1.97;;
38117;SDS011;23928;47.562;7.508;2022-08-01T06:49:05;2.03;;;1.83;;
38117;SDS011;23928;47.562;7.508;2022-08-01T06:51:31;2.80;;;2.20;;
38117;SDS011;23928;47.562;7.508;2022-08-01T06:53:56;3.47;;;2.23;;
38117;SDS011;23928;47.562;7.508;2022-08-01T06:56:22;4.50;;;2.73;;
38117;SDS011;23928;47.562;7.508;2022-08-01T06:58:49;4.37;;;2.13;;
38117;SDS011;23928;47.562;7.508;2022-08-01T07:01:15;3.60;;;2.40;;
38117;SDS011;23928;47.562;7.508;2022-08-01T07:03:40;7.17;;;2.97;;
38117;SDS011;23928;47.562;7.508;2022-08-01T07:06:06;2.60;;;2.40;;
38117;SDS011;23928;47.562;7.508;2022-08-01T07:08:32;2.63;;;2.07;;
38117;SDS011;23928;47.562;7.508;2022-08-01T07:10:58;2.70;;;2.50;;
38117;SDS011;23928;47.562;7.508;2022-08-01T07:13:27;3.30;;;2.10;;
38117;SDS011;23928;47.562;7.508;2022-08-01T07:15:56;2.47;;;2.27;;
38117;SDS011;23928;47.562;7.508;2022-08-01T07:18:22;4.03;;;2.43;;
38117;SDS011;23928;47.562;7.508;2022-08-01T07:20:48;2.70;;;2.00;;
38117;SDS011;23928;47.562;7.508;2022-08-01T07:23:14;2.50;;;2.30;;
38117;SDS011;23928;47.562;7.508;2022-08-01T07:25:40;3.90;;;2.50;;
38117;SDS011;23928;47.562;7.508;2022-08-01T07:28:06;2.30;;;2.07;;
38117;SDS011;23928;47.562;7.508;2022-08-01T07:30:32;2.13;;;2.03;;
38117;SDS011;23928;47.562;7.508;2022-08-01T07:32:58;2.80;;;2.60;;
38117;SDS011;23928;47.562;7.508;2022-08-01T07:35:24;5.67;;;2.60;;
38117;SDS011;23928;47.562;7.508;2022-08-01T07:37:50;5.33;;;2.93;;
38117;SDS011;23928;47.562;7.508;2022-08-01T07:40:18;3.83;;;2.77;;
38117;SDS011;23928;47.562;7.508;2022-08-01T07:42:44;2.47;;;2.30;;
38117;SDS011;23928;47.562;7.508;2022-08-01T07:45:11;3.47;;;2.70;;
38117;SDS011;23928;47.562;7.508;2022-08-01T07:47:37;2.77;;;2.53;;
38117;SDS011;23928;47.562;7.508;2022-08-01T07:50:03;2.80;;;2.60;;
38117;SDS011;23928;47.562;7.508;2022-08-01T07:52:30;2.70;;;2.23;;
38117;SDS011;23928;47.562;7.508;2022-08-01T07:54:56;2.50;;;2.30;;
38117;SDS011;23928;47.562;7.508;2022-08-01T07:57:23;3.13;;;2.77;;
38117;SDS011;23928;47.562;7.508;2022-08-01T07:59:49;3.50;;;2.50;;
38117;SDS011;23928;47.562;7.508;2022-08-01T08:02:15;3.20;;;2.40;;
38117;SDS011;23928;47.562;7.508;2022-08-01T08:04:41;2.60;;;2.40;;
38117;SDS011;23928;47.562;7.508;2022-08-01T08:07:07;2.53;;;2.33;;
38117;SDS011;23928;47.562;7.508;2022-08-01T08:09:32;4.00;;;2.50;;
38117;SDS011;23928;47.562;7.508;2022-08-01T08:11:58;3.93;;;2.50;;
38117;SDS011;23928;47.562;7.508;2022-08-01T08:14:24;3.53;;;2.50;;
38117;SDS011;23928;47.562;7.508;2022-08-01T08:16:50;4.77;;;2.60;;
38117;SDS011;23928;47.562;7.508;2022-08-01T08:19:16;2.53;;;2.33;;
38117;SDS011;23928;47.562;7.508;2022-08-01T08:21:41;2.57;;;2.37;;
38117;SDS011;23928;47.562;7.508;2022-08-01T08:24:08;3.23;;;2.67;;
38117;SDS011;23928;47.562;7.508;2022-08-01T08:26:51;3.37;;;2.47;;
38117;SDS011;23928;47.562;7.508;2022-08-01T08:29:18;3.23;;;2.53;;
38117;SDS011;23928;47.562;7.508;2022-08-01T08:31:44;2.57;;;2.37;;
38117;SDS011;23928;47.562;7.508;2022-08-01T08:34:10;3.70;;;3.03;;
38117;SDS011;23928;47.562;7.508;2022-08-01T08:36:36;3.53;;;2.30;;
38117;SDS011;23928;47.562;7.508;2022-08-01T08:39:03;3.63;;;2.33;;
38117;SDS011;23928;47.562;7.508;2022-08-01T08:41:29;3.27;;;2.50;;
38117;SDS011;23928;47.562;7.508;2022-08-01T08:43:56;2.83;;;2.63;;
38117;SDS011;23928;47.562;7.508;2022-08-01T08:46:24;3.00;;;2.40;;
38117;SDS011;23928;47.562;7.508;2022-08-01T08:48:51;2.70;;;2.40;;
38117;SDS011;23928;47.562;7.508;2022-08-01T08:51:17;2.27;;;2.07;;
38117;SDS011;23928;47.562;7.508;2022-08-01T08:53:44;2.97;;;2.20;;
38117;SDS011;23928;47.562;7.508;2022-08-01T08:56:12;3.77;;;2.70;;
38117;SDS011;23928;47.562;7.508;2022-08-01T08:58:43;4.07;;;2.50;;
38117;SDS011;23928;47.562;7.508;2022-08-01T09:01:10;2.50;;;2.30;;
38117;SDS011;23928;47.562;7.508;2022-08-01T09:03:37;2.70;;;2.47;;
38117;SDS011;23928;47.562;7.508;2022-08-01T09:06:03;4.37;;;2.40;;
38117;SDS011;23928;47.562;7.508;2022-08-01T09:08:29;2.80;;;2.27;;
38117;SDS011;23928;47.562;7.508;2022-08-01T09:10:55;6.00;;;2.30;;
38117;SDS011;23928;47.562;7.508;2022-08-01T09:13:20;3.73;;;2.33;;
38117;SDS011;23928;47.562;7.508;2022-08-01T09:15:47;2.60;;;2.40;;
38117;SDS011;23928;47.562;7.508;2022-08-01T09:21:10;3.70;;;2.20;;
38117;SDS011;23928;47.562;7.508;2022-08-01T09:26:38;2.90;;;2.00;;
38117;SDS011;23928;47.562;7.508;2022-08-01T09:28:58;2.40;;;2.20;;
38117;SDS011;23928;47.562;7.508;2022-08-01T09:31:24;3.80;;;2.40;;
38117;SDS011;23928;47.562;7.508;2022-08-01T09:33:53;2.40;;;2.20;;
38117;SDS011;23928;47.562;7.508;2022-08-01T09:36:21;4.50;;;2.33;;
38117;SDS011;23928;47.562;7.508;2022-08-01T09:38:48;2.03;;;1.83;;
38117;SDS011;23928;47.562;7.508;2022-08-01T09:41:14;1.93;;;1.80;;
38117;SDS011;23928;47.562;7.508;2022-08-01T09:43:40;2.13;;;2.00;;
38117;SDS011;23928;47.562;7.508;2022-08-01T09:46:14;3.03;;;2.03;;
38117;SDS011;23928;47.562;7.508;2022-08-01T09:48:59;2.67;;;2.30;;
38117;SDS011;23928;47.562;7.508;2022-08-01T09:51:30;2.13;;;1.93;;
38117;SDS011;23928;47.562;7.508;2022-08-01T09:54:00;2.20;;;2.00;;
38117;SDS011;23928;47.562;7.508;2022-08-01T09:56:35;1.87;;;1.77;;
38117;SDS011;23928;47.562;7.508;2022-08-01T09:59:05;1.87;;;1.77;;
38117;SDS011;23928;47.562;7.508;2022-08-01T10:01:41;2.77;;;2.07;;
38117;SDS011;23928;47.562;7.508;2022-08-01T10:04:13;1.90;;;1.80;;
38117;SDS011;23928;47.562;7.508;2022-08-01T10:06:41;2.20;;;2.10;;
38117;SDS011;23928;47.562;7.508;2022-08-01T10:09:08;2.40;;;2.20;;
38117;SDS011;23928;47.562;7.508;2022-08-01T10:11:35;2.50;;;2.30;;
38117;SDS011;23928;47.562;7.508;2022-08-01T10:14:04;2.23;;;2.10;;
38117;SDS011;23928;47.562;7.508;2022-08-01T10:16:32;2.17;;;2.00;;
38117;SDS011;23928;47.562;7.508;2022-08-01T10:19:02;2.27;;;2.17;;
38117;SDS011;23928;47.562;7.508;2022-08-01T10:21:31;2.27;;;1.90;;
38117;SDS011;23928;47.562;7.508;2022-08-01T10:23:58;2.57;;;2.10;;
38117;SDS011;23928;47.562;7.508;2022-08-01T10:26:27;2.23;;;1.80;;
38117;SDS011;23928;47.562;7.508;2022-08-01T10:28:56;3.73;;;1.90;;
38117;SDS011;23928;47.562;7.508;2022-08-01T10:31:22;2.67;;;1.90;;
38117;SDS011;23928;47.562;7.508;2022-08-01T10:33:48;1.40;;;1.40;;
38117;SDS011;23928;47.562;7.508;2022-08-01T10:36:17;2.73;;;1.70;;
38117;SDS011;23928;47.562;7.508;2022-08-01T10:38:45;1.90;;;1.80;;
38117;SDS011;23928;47.562;7.508;2022-08-01T10:41:11;1.70;;;1.60;;
38117;SDS011;23928;47.562;7.508;2022-08-01T10:43:42;2.00;;;1.80;;
38117;SDS011;23928;47.562;7.508;2022-08-01T10:46:07;1.80;;;1.70;;
38117;SDS011;23928;47.562;7.508;2022-08-01T10:49:17;1.93;;;1.77;;
38117;SDS011;23928;47.562;7.508;2022-08-01T10:51:28;2.33;;;1.83;;
38117;SDS011;23928;47.562;7.508;2022-08-01T10:53:54;1.63;;;1.53;;
38117;SDS011;23928;47.562;7.508;2022-08-01T10:56:23;2.50;;;2.03;;
38117;SDS011;23928;47.562;7.508;2022-08-01T10:58:49;2.23;;;1.83;;
38117;SDS011;23928;47.562;7.508;2022-08-01T11:01:21;1.70;;;1.60;;
38117;SDS011;23928;47.562;7.508;2022-08-01T11:06:24;2.40;;;2.17;;
38117;SDS011;23928;47.562;7.508;2022-08-01T11:08:53;2.27;;;1.63;;
38117;SDS011;23928;47.562;7.508;2022-08-01T11:11:19;2.13;;;1.63;;
38117;SDS011;23928;47.562;7.508;2022-08-01T11:16:27;1.93;;;1.70;;
38117;SDS011;23928;47.562;7.508;2022-08-01T11:18:54;1.93;;;1.63;;
38117;SDS011;23928;47.562;7.508;2022-08-01T11:21:20;3.73;;;1.83;;
38117;SDS011;23928;47.562;7.508;2022-08-01T11:23:49;3.77;;;1.83;;
38117;SDS011;23928;47.562;7.508;2022-08-01T11:26:19;2.50;;;1.60;;
38117;SDS011;23928;47.562;7.508;2022-08-01T11:28:46;2.10;;;1.90;;
38117;SDS011;23928;47.562;7.508;2022-08-01T11:31:32;2.80;;;1.60;;
38117;SDS011;23928;47.562;7.508;2022-08-01T11:33:58;2.70;;;1.50;;
38117;SDS011;23928;47.562;7.508;2022-08-01T11:36:25;1.70;;;1.60;;
38117;SDS011;23928;47.562;7.508;2022-08-01T11:41:28;1.50;;;1.40;;
38117;SDS011;23928;47.562;7.508;2022-08-01T11:52:03;1.77;;;1.40;;
38117;SDS011;23928;47.562;7.508;2022-08-01T11:54:36;1.83;;;1.60;;
38117;SDS011;23928;47.562;7.508;2022-08-01T11:57:12;2.90;;;1.50;;
38117;SDS011;23928;47.562;7.508;2022-08-01T11:59:39;2.10;;;1.47;;
38117;SDS011;23928;47.562;7.508;2022-08-01T12:04:57;1.97;;;1.50;;
38117;SDS011;23928;47.562;7.508;2022-08-01T12:07:26;1.93;;;1.70;;
38117;SDS011;23928;47.562;7.508;2022-08-01T12:09:56;1.57;;;1.47;;
38117;SDS011;23928;47.562;7.508;2022-08-01T12:12:30;1.60;;;1.50;;
38117;SDS011;23928;47.562;7.508;2022-08-01T12:14:58;1.50;;;1.40;;
38117;SDS011;23928;47.562;7.508;2022-08-01T12:17:30;1.80;;;1.70;;
38117;SDS011;23928;47.562;7.508;2022-08-01T12:20:05;1.77;;;1.67;;
38117;SDS011;23928;47.562;7.508;2022-08-01T12:22:33;2.53;;;1.67;;
38117;SDS011;23928;47.562;7.508;2022-08-01T12:25:32;1.90;;;1.50;;
38117;SDS011;23928;47.562;7.508;2022-08-01T12:27:50;1.60;;;1.50;;
38117;SDS011;23928;47.562;7.508;2022-08-01T12:30:18;2.50;;;1.43;;
38117;SDS011;23928;47.562;7.508;2022-08-01T12:32:48;1.53;;;1.20;;
38117;SDS011;23928;47.562;7.508;2022-08-01T12:35:16;1.63;;;1.53;;
38117;SDS011;23928;47.562;7.508;2022-08-01T12:37:43;3.77;;;1.50;;
38117;SDS011;23928;47.562;7.508;2022-08-01T12:42:44;1.70;;;1.60;;
38117;SDS011;23928;47.562;7.508;2022-08-01T12:45:14;2.07;;;1.60;;
38117;SDS011;23928;47.562;7.508;2022-08-01T12:47:43;2.43;;;1.60;;
38117;SDS011;23928;47.562;7.508;2022-08-01T12:50:13;2.23;;;1.53;;
38117;SDS011;23928;47.562;7.508;2022-08-01T12:52:40;1.87;;;1.70;;
38117;SDS011;23928;47.562;7.508;2022-08-01T12:55:08;1.80;;;1.70;;
38117;SDS011;23928;47.562;7.508;2022-08-01T12:57:36;1.70;;;1.60;;
38117;SDS011;23928;47.562;7.508;2022-08-01T13:02:35;1.73;;;1.63;;
38117;SDS011;23928;47.562;7.508;2022-08-01T13:05:01;1.83;;;1.40;;
38117;SDS011;23928;47.562;7.508;2022-08-01T13:08:01;1.27;;;1.27;;
38117;SDS011;23928;47.562;7.508;2022-08-01T13:10:29;1.83;;;1.67;;
38117;SDS011;23928;47.562;7.508;2022-08-01T13:12:57;1.60;;;1.50;;
38117;SDS011;23928;47.562;7.508;2022-08-01T13:15:27;2.67;;;1.50;;
38117;SDS011;23928;47.562;7.508;2022-08-01T13:18:00;1.60;;;1.50;;
38117;SDS011;23928;47.562;7.508;2022-08-01T13:20:45;3.13;;;1.77;;
38117;SDS011;23928;47.562;7.508;2022-08-01T13:23:16;1.93;;;1.53;;
38117;SDS011;23928;47.562;7.508;2022-08-01T13:25:53;1.90;;;1.77;;
38117;SDS011;23928;47.562;7.508;2022-08-01T13:31:01;1.50;;;1.40;;
38117;SDS011;23928;47.562;7.508;2022-08-01T13:33:47;2.30;;;1.77;;
38117;SDS011;23928;47.562;7.508;2022-08-01T13:36:13;1.73;;;1.40;;
38117;SDS011;23928;47.562;7.508;2022-08-01T13:38:41;1.90;;;1.70;;
38117;SDS011;23928;47.562;7.508;2022-08-01T13:41:26;2.40;;;1.50;;
38117;SDS011;23928;47.562;7.508;2022-08-01T13:43:52;2.47;;;1.50;;
38117;SDS011;23928;47.562;7.508;2022-08-01T13:46:18;1.60;;;1.50;;
38117;SDS011;23928;47.562;7.508;2022-08-01T13:48:44;1.58;;;1.48;;
38117;SDS011;23928;47.562;7.508;2022-08-01T13:51:09;1.70;;;1.23;;
38117;SDS011;23928;47.562;7.508;2022-08-01T13:53:35;1.60;;;1.50;;
38117;SDS011;23928;47.562;7.508;2022-08-01T13:56:01;1.93;;;1.50;;
38117;SDS011;23928;47.562;7.508;2022-08-01T13:58:27;2.07;;;1.63;;
38117;SDS011;23928;47.562;7.508;2022-08-01T14:00:53;2.15;;;1.77;;
38117;SDS011;23928;47.562;7.508;2022-08-01T14:03:20;1.80;;;1.50;;
38117;SDS011;23928;47.562;7.508;2022-08-01T14:05:46;2.53;;;1.60;;
38117;SDS011;23928;47.562;7.508;2022-08-01T14:08:13;2.40;;;1.90;;
38117;SDS011;23928;47.562;7.508;2022-08-01T14:10:39;3.57;;;1.97;;
38117;SDS011;23928;47.562;7.508;2022-08-01T14:13:05;2.73;;;1.80;;
38117;SDS011;23928;47.562;7.508;2022-08-01T14:15:31;1.70;;;1.60;;
38117;SDS011;23928;47.562;7.508;2022-08-01T14:17:57;2.13;;;1.92;;
38117;SDS011;23928;47.562;7.508;2022-08-01T14:20:24;1.90;;;1.70;;
38117;SDS011;23928;47.562;7.508;2022-08-01T14:22:49;1.40;;;1.38;;
38117;SDS011;23928;47.562;7.508;2022-08-01T14:25:15;3.10;;;1.63;;
38117;SDS011;23928;47.562;7.508;2022-08-01T14:27:43;1.93;;;1.83;;
38117;SDS011;23928;47.562;7.508;2022-08-01T14:30:09;2.33;;;2.13;;
38117;SDS011;23928;47.562;7.508;2022-08-01T14:32:35;1.83;;;1.73;;
38117;SDS011;23928;47.562;7.508;2022-08-01T14:35:01;3.42;;;2.05;;
38117;SDS011;23928;47.562;7.508;2022-08-01T14:37:28;2.28;;;2.08;;
38117;SDS011;23928;47.562;7.508;2022-08-01T14:39:54;1.83;;;1.73;;
38117;SDS011;23928;47.562;7.508;2022-08-01T14:42:20;2.50;;;2.13;;
38117;SDS011;23928;47.562;7.508;2022-08-01T14:44:46;2.55;;;1.70;;
38117;SDS011;23928;47.562;7.508;2022-08-01T14:47:11;2.10;;;1.95;;
38117;SDS011;23928;47.562;7.508;2022-08-01T14:49:37;2.15;;;2.05;;
38117;SDS011;23928;47.562;7.508;2022-08-01T14:52:02;2.28;;;1.80;;
38117;SDS011;23928;47.562;7.508;2022-08-01T14:54:28;1.90;;;1.80;;
38117;SDS011;23928;47.562;7.508;2022-08-01T14:56:54;2.47;;;2.27;;
38117;SDS011;23928;47.562;7.508;2022-08-01T14:59:20;2.35;;;1.90;;
38117;SDS011;23928;47.562;7.508;2022-08-01T15:01:45;1.90;;;1.70;;
38117;SDS011;23928;47.562;7.508;2022-08-01T15:04:11;3.33;;;2.00;;
38117;SDS011;23928;47.562;7.508;2022-08-01T15:06:37;1.97;;;1.73;;
38117;SDS011;23928;47.562;7.508;2022-08-01T15:09:03;2.33;;;2.10;;
38117;SDS011;23928;47.562;7.508;2022-08-01T15:11:29;1.83;;;1.57;;
38117;SDS011;23928;47.562;7.508;2022-08-01T15:13:54;2.77;;;2.10;;
38117;SDS011;23928;47.562;7.508;2022-08-01T15:16:39;3.40;;;1.57;;
38117;SDS011;23928;47.562;7.508;2022-08-01T15:19:04;2.50;;;1.90;;
38117;SDS011;23928;47.562;7.508;2022-08-01T15:21:30;2.17;;;1.97;;
38117;SDS011;23928;47.562;7.508;2022-08-01T15:23:56;1.87;;;1.77;;
38117;SDS011;23928;47.562;7.508;2022-08-01T15:26:21;1.87;;;1.70;;
38117;SDS011;23928;47.562;7.508;2022-08-01T15:28:47;2.00;;;1.90;;
38117;SDS011;23928;47.562;7.508;2022-08-01T15:31:13;2.73;;;1.87;;
38117;SDS011;23928;47.562;7.508;2022-08-01T15:33:38;1.93;;;1.83;;
38117;SDS011;23928;47.562;7.508;2022-08-01T15:36:04;2.53;;;1.70;;
38117;SDS011;23928;47.562;7.508;2022-08-01T15:38:30;2.03;;;1.90;;
38117;SDS011;23928;47.562;7.508;2022-08-01T15:40:55;3.83;;;1.47;;
38117;SDS011;23928;47.562;7.508;2022-08-01T15:43:21;1.90;;;1.80;;
38117;SDS011;23928;47.562;7.508;2022-08-01T15:45:47;2.10;;;1.83;;
38117;SDS011;23928;47.562;7.508;2022-08-01T15:48:13;1.90;;;1.80;;
38117;SDS011;23928;47.562;7.508;2022-08-01T15:50:39;3.00;;;1.90;;
38117;SDS011;23928;47.562;7.508;2022-08-01T15:53:05;1.93;;;1.70;;
38117;SDS011;23928;47.562;7.508;2022-08-01T15:55:31;3.60;;;2.00;;
38117;SDS011;23928;47.562;7.508;2022-08-01T15:57:59;1.93;;;1.80;;
38117;SDS011;23928;47.562;7.508;2022-08-01T16:00:25;3.17;;;2.00;;
38117;SDS011;23928;47.562;7.508;2022-08-01T16:02:50;1.70;;;1.60;;
38117;SDS011;23928;47.562;7.508;2022-08-01T16:05:16;1.70;;;1.60;;
38117;SDS011;23928;47.562;7.508;2022-08-01T16:07:42;2.57;;;1.83;;
38117;SDS011;23928;47.562;7.508;2022-08-01T16:10:08;2.00;;;1.80;;
38117;SDS011;23928;47.562;7.508;2022-08-01T16:12:34;3.00;;;1.70;;
38117;SDS011;23928;47.562;7.508;2022-08-01T16:14:59;1.80;;;1.70;;
38117;SDS011;23928;47.562;7.508;2022-08-01T16:17:25;3.03;;;1.60;;
38117;SDS011;23928;47.562;7.508;2022-08-01T16:19:50;2.00;;;1.53;;
38117;SDS011;23928;47.562;7.508;2022-08-01T16:22:16;1.80;;;1.70;;
38117;SDS011;23928;47.562;7.508;2022-08-01T16:24:42;2.17;;;1.70;;
38117;SDS011;23928;47.562;7.508;2022-08-01T16:27:07;2.40;;;1.70;;
38117;SDS011;23928;47.562;7.508;2022-08-01T16:29:33;2.13;;;1.63;;
38117;SDS011;23928;47.562;7.508;2022-08-01T16:31:59;1.63;;;1.53;;